Terminal Aerodrome Forecast
Issued by NWS

Home | Current Version | Previous Version | Text Only | Print | Product List | Glossary On
Versions: 1 2 3 4 5 6 7 8 9 10 11 12 13 14 15 16 17 18 19 20
000
FTUS43 KMKX 211440 AAA
TAFUES
TAF AMD
KUES 211440Z 2115/2212 27007KT P6SM VCSH SCT035 OVC080
      TEMPO 2115/2119 5SM -SHRA BKN035
     FM211900 23010KT 6SM -SHRA BR OVC040
      TEMPO 2119/2123 3SM -TSRA OVC030CB
     FM220000 27010KT P6SM OVC040
     FM220300 33010KT P6SM SCT040=

USA.gov is the U.S. government's official web portal to all federal, state and local government web resources and services.